Accueil
METAR-TAF:

METAR-TAF

Aéroports :

Aérodrome de Futuna Pointe Vele

Futuna, France

latitude: 14-19S, longitude: 178-07W, altitude: 6 m

METAR: absent

Heure: 11:01 (23:01 UTC)

Prévision

Le bulletin a été fait il y a 6 heures et 1 minutes, à 17:00 UTC
Prévision valable du 20 à 18 UTC au 21 à 18 UTC
Vent 12 kt de est
Visibilité 10 km ou plus
Nuages épars à une hauteur de 2500 ft
Nuages fragmentés à une hauteur de 4000 ft

TAF: NLWF 201700Z 2018/2118 08012KT 9999 SCT025 BKN040

Observations et prévisions météorologiques de plus de 4000 aéroports (messages METAR et TAF).

Les stations disponibles sont représentées par des disques jaunes et rouges sur la carte.

Passer la souris dessus pour voir le nom de la station.

Cliquer dessus pour voir les observations et prévisions météorologiques.

Pour changer de carte: cliquez sur les boutons verts avec une croix noire pour zoomer, sur le bouton vert avec un tiret pour effectuer un zoom arrière, ou sur les flèches vertes pour les cartes adjacentes.


METAR-TAF: